createdAt,value
2023-02-08T00:02:14.222Z,99139.22
2023-02-08T00:04:41.952Z,99131.63
2023-02-08T00:07:09.648Z,99135.41
2023-02-08T00:09:37.435Z,99144.75
2023-02-08T00:12:05.304Z,99142.56
2023-02-08T00:14:32.966Z,99142.56
2023-02-08T00:17:00.748Z,99142.91
2023-02-08T00:19:28.465Z,99148.88
2023-02-08T00:21:56.234Z,99153.16
2023-02-08T00:24:23.965Z,99163.47
2023-02-08T00:26:51.777Z,99153.91
2023-02-08T00:29:19.578Z,99154.81
2023-02-08T00:31:47.726Z,99165.03
2023-02-08T00:34:16.369Z,99166.16
2023-02-08T00:36:44.123Z,99167.63
2023-02-08T00:39:12.858Z,99172.22
2023-02-08T00:41:41.944Z,99170.97
2023-02-08T00:44:09.667Z,99173.13
2023-02-08T00:46:37.455Z,99171.91
2023-02-08T00:49:05.176Z,99167.66
2023-02-08T00:51:32.925Z,99179.47
2023-02-08T00:54:00.626Z,99169.66
2023-02-08T00:56:28.389Z,99167.75
2023-02-08T00:58:56.081Z,99177.69
2023-02-08T01:01:23.831Z,99183.50
2023-02-08T01:03:53.629Z,99183.00
2023-02-08T01:06:21.398Z,99185.13
2023-02-08T01:08:49.180Z,99178.22
2023-02-08T01:11:18.955Z,99187.44
2023-02-08T01:13:46.673Z,99188.41
2023-02-08T01:16:14.345Z,99187.25
2023-02-08T01:18:43.052Z,99184.56
2023-02-08T01:21:13.104Z,99189.19
2023-02-08T01:23:41.492Z,99190.00
2023-02-08T01:26:09.515Z,99191.28
2023-02-08T01:28:37.307Z,99190.47
2023-02-08T01:31:09.580Z,99193.78
2023-02-08T01:33:37.432Z,99192.84
2023-02-08T01:36:05.750Z,99182.91
2023-02-08T01:38:34.183Z,99184.94
2023-02-08T01:41:01.972Z,99178.56
2023-02-08T01:43:32.761Z,99194.25
2023-02-08T01:46:00.578Z,99189.66
2023-02-08T01:48:35.416Z,99188.72
2023-02-08T01:51:16.630Z,99189.16
2023-02-08T01:53:44.353Z,99185.09
2023-02-08T01:56:16.704Z,99193.09
2023-02-08T01:58:47.884Z,99200.50
2023-02-08T02:01:15.669Z,99200.91
2023-02-08T02:03:43.403Z,99198.19
2023-02-08T02:06:17.070Z,99200.75
2023-02-08T02:08:52.524Z,99199.31
2023-02-08T02:11:20.301Z,99200.44
2023-02-08T02:13:48.260Z,99199.41
2023-02-08T02:16:17.018Z,99196.53
2023-02-08T02:18:44.694Z,99202.56
2023-02-08T02:21:43.779Z,99216.66
2023-02-08T02:24:23.690Z,99222.06
2023-02-08T02:27:19.437Z,99228.34
2023-02-08T02:30:07.560Z,99218.50
2023-02-08T02:33:03.271Z,99221.38
2023-02-08T02:35:33.715Z,99225.69
2023-02-08T02:38:24.740Z,99231.75
2023-02-08T02:41:01.488Z,99225.00
2023-02-08T02:43:42.083Z,99233.44
2023-02-08T02:46:27.134Z,99236.00
2023-02-08T02:49:06.013Z,99235.72
2023-02-08T02:52:01.458Z,99237.34
2023-02-08T02:54:39.177Z,99238.81
2023-02-08T02:57:08.258Z,99243.84
2023-02-08T02:59:36.697Z,99238.94
2023-02-08T03:02:04.813Z,99234.69
2023-02-08T03:04:32.569Z,99238.28
2023-02-08T03:07:04.301Z,99250.09
2023-02-08T03:09:50.848Z,99244.09
2023-02-08T03:12:21.229Z,99245.75
2023-02-08T03:15:07.321Z,99252.88
2023-02-08T03:18:28.719Z,99253.91
2023-02-08T03:20:56.342Z,99254.66
2023-02-08T03:23:32.242Z,99261.06
2023-02-08T03:26:12.364Z,99264.03
2023-02-08T03:28:49.101Z,99270.19
2023-02-08T03:31:45.101Z,99268.38
2023-02-08T03:34:24.487Z,99264.84
2023-02-08T03:37:02.157Z,99270.72
2023-02-08T03:39:30.224Z,99273.13
2023-02-08T03:42:00.171Z,99270.75
2023-02-08T03:44:32.634Z,99275.81
2023-02-08T03:47:02.864Z,99268.63
2023-02-08T03:49:36.827Z,99280.44
2023-02-08T03:52:07.246Z,99282.06
2023-02-08T03:54:56.453Z,99284.84
2023-02-08T03:57:26.279Z,99284.53
2023-02-08T03:59:59.037Z,99286.34
2023-02-08T04:02:28.453Z,99282.75
2023-02-08T04:04:56.188Z,99290.91
2023-02-08T04:07:23.977Z,99288.78
2023-02-08T04:09:51.821Z,99292.16
2023-02-08T04:12:19.534Z,99295.53
2023-02-08T04:14:47.277Z,99300.88
2023-02-08T04:17:14.997Z,99293.28
2023-02-08T04:19:42.665Z,99302.28
2023-02-08T04:22:10.394Z,99301.78
2023-02-08T04:24:38.047Z,99302.44
2023-02-08T04:27:06.207Z,99298.22
2023-02-08T04:29:33.919Z,99307.69
2023-02-08T04:32:02.243Z,99308.13
2023-02-08T04:34:29.941Z,99306.53
2023-02-08T04:36:57.697Z,99321.88
2023-02-08T04:39:25.436Z,99325.28
2023-02-08T04:41:53.196Z,99323.09
2023-02-08T04:44:20.942Z,99323.34
2023-02-08T04:46:48.666Z,99319.81
2023-02-08T04:49:16.380Z,99320.72
2023-02-08T04:51:44.142Z,99324.72
2023-02-08T04:54:11.891Z,99331.94
2023-02-08T04:56:39.662Z,99335.22
2023-02-08T04:59:07.374Z,99350.81
2023-02-08T05:01:35.216Z,99340.88
2023-02-08T05:04:03.046Z,99353.06
2023-02-08T05:06:30.753Z,99352.53
2023-02-08T05:08:58.415Z,99347.47
2023-02-08T05:11:27.495Z,99359.41
2023-02-08T05:13:55.156Z,99354.41
2023-02-08T05:16:23.103Z,99357.75
2023-02-08T05:18:50.824Z,99360.31
2023-02-08T05:21:18.601Z,99356.97
2023-02-08T05:23:46.892Z,99358.47
2023-02-08T05:26:15.202Z,99358.69
2023-02-08T05:28:42.991Z,99348.72
2023-02-08T05:31:21.457Z,99352.78
2023-02-08T05:33:50.162Z,99362.06
2023-02-08T05:36:18.110Z,99359.22
2023-02-08T05:38:45.880Z,99369.50
2023-02-08T05:41:13.620Z,99363.56
2023-02-08T05:43:41.800Z,99373.84
2023-02-08T05:46:09.445Z,99368.69
2023-02-08T05:48:37.205Z,99376.38
2023-02-08T05:51:04.919Z,99378.28
2023-02-08T05:53:32.657Z,99382.13
2023-02-08T05:56:00.383Z,99382.22
2023-02-08T05:58:28.346Z,99393.16
2023-02-08T06:00:56.299Z,99399.28
2023-02-08T06:03:24.191Z,99391.94
2023-02-08T06:05:51.883Z,99398.41
2023-02-08T06:08:19.589Z,99404.91
2023-02-08T06:10:48.874Z,99407.84
2023-02-08T06:13:16.690Z,99404.34
2023-02-08T06:15:44.664Z,99412.09
2023-02-08T06:18:12.380Z,99412.50
2023-02-08T06:20:40.403Z,99404.44
2023-02-08T06:23:08.359Z,99410.47
2023-02-08T06:25:36.048Z,99416.78
2023-02-08T06:28:03.953Z,99415.38
2023-02-08T06:30:31.987Z,99414.53
2023-02-08T06:32:59.721Z,99417.38
2023-02-08T06:35:27.457Z,99412.63
2023-02-08T06:37:55.149Z,99419.81
2023-02-08T06:40:22.825Z,99410.13
2023-02-08T06:42:50.667Z,99415.59
2023-02-08T06:45:18.484Z,99439.13
2023-02-08T06:47:46.185Z,99441.41
2023-02-08T06:50:15.223Z,99441.69
2023-02-08T06:52:43.041Z,99437.66
2023-02-08T06:55:10.765Z,99433.06
2023-02-08T06:57:38.572Z,99424.50
2023-02-08T07:00:06.714Z,99435.41
2023-02-08T07:02:34.568Z,99441.97
2023-02-08T07:05:02.267Z,99451.34
2023-02-08T07:07:30.010Z,99454.75
2023-02-08T07:09:57.736Z,99467.78
2023-02-08T07:12:25.463Z,99469.25
2023-02-08T07:14:53.156Z,99468.38
2023-02-08T07:17:20.853Z,99469.53
2023-02-08T07:19:48.553Z,99475.78
2023-02-08T07:22:16.371Z,99472.13
2023-02-08T07:24:44.085Z,99468.25
2023-02-08T07:27:12.492Z,99479.69
2023-02-08T07:29:40.338Z,99480.44
2023-02-08T07:32:08.323Z,99486.06
2023-02-08T07:34:37.106Z,99476.94
2023-02-08T07:37:04.913Z,99484.44
2023-02-08T07:39:32.710Z,99498.25
2023-02-08T07:42:00.553Z,99488.59
2023-02-08T07:44:34.320Z,99487.88
2023-02-08T07:47:02.081Z,99493.50
2023-02-08T07:49:30.266Z,99482.97
2023-02-08T07:51:59.161Z,99498.63
2023-02-08T07:54:26.915Z,99506.19
2023-02-08T07:56:54.640Z,99504.63
2023-02-08T07:59:22.392Z,99512.63
2023-02-08T08:01:50.182Z,99509.13
2023-02-08T08:04:19.785Z,99513.91
2023-02-08T08:06:47.643Z,99522.47
2023-02-08T08:09:15.460Z,99518.03
2023-02-08T08:11:43.228Z,99524.91
2023-02-08T08:14:10.937Z,99522.47
2023-02-08T08:16:38.703Z,99523.47
2023-02-08T08:19:06.378Z,99533.91
2023-02-08T08:21:34.057Z,99534.06
2023-02-08T08:24:02.114Z,99529.56
2023-02-08T08:26:29.869Z,99534.00
2023-02-08T08:28:57.638Z,99543.72
2023-02-08T08:31:25.594Z,99538.25
2023-02-08T08:33:53.408Z,99537.66
2023-02-08T08:36:21.070Z,99545.19
2023-02-08T08:38:48.832Z,99540.22
2023-02-08T08:41:22.280Z,99533.50
2023-02-08T08:43:50.292Z,99539.47
2023-02-08T08:46:18.107Z,99542.38
2023-02-08T08:48:46.107Z,99546.66
2023-02-08T08:51:14.244Z,99540.41
2023-02-08T08:53:42.104Z,99551.41
2023-02-08T08:56:09.932Z,99551.22
2023-02-08T08:58:37.661Z,99549.56
2023-02-08T09:01:05.519Z,99560.59
2023-02-08T09:03:33.468Z,99555.72
2023-02-08T09:06:01.194Z,99565.13
2023-02-08T09:08:28.901Z,99561.81
2023-02-08T09:10:56.659Z,99563.25
2023-02-08T09:13:24.606Z,99570.25
2023-02-08T09:15:52.309Z,99575.00
2023-02-08T09:18:20.010Z,99572.47
2023-02-08T09:20:47.688Z,99572.19
2023-02-08T09:23:15.414Z,99578.22
2023-02-08T09:25:43.167Z,99582.28
2023-02-08T09:28:11.009Z,99581.75
2023-02-08T09:30:38.719Z,99581.81
2023-02-08T09:33:06.455Z,99587.81
2023-02-08T09:35:34.125Z,99583.75
2023-02-08T09:38:04.582Z,99574.69
2023-02-08T09:41:11.073Z,99588.66
2023-02-08T09:43:59.683Z,99584.34
2023-02-08T09:46:29.151Z,99582.88
2023-02-08T09:48:58.963Z,99582.09
2023-02-08T09:51:30.827Z,99579.84
2023-02-08T09:54:17.750Z,99578.19
2023-02-08T09:56:45.524Z,99587.44
2023-02-08T09:59:18.420Z,99585.41
2023-02-08T10:01:46.128Z,99584.22
2023-02-08T10:04:18.626Z,99586.00
2023-02-08T10:06:47.656Z,99577.91
2023-02-08T10:09:16.381Z,99577.31
2023-02-08T10:11:59.266Z,99579.94
2023-02-08T10:14:52.497Z,99580.28
2023-02-08T10:17:38.507Z,99583.81
2023-02-08T10:20:27.230Z,99579.66
2023-02-08T10:23:32.339Z,99576.59
2023-02-08T10:26:02.898Z,99577.13
2023-02-08T10:28:39.373Z,99570.25
2023-02-08T10:31:16.600Z,99570.06
2023-02-08T10:34:01.125Z,99578.88
2023-02-08T10:36:35.252Z,99565.78
2023-02-08T10:39:07.740Z,99574.03
2023-02-08T10:41:42.542Z,99571.16
2023-02-08T10:44:31.324Z,99576.75
2023-02-08T10:47:40.925Z,99576.06
2023-02-08T10:50:36.703Z,99578.75
2023-02-08T10:53:06.817Z,99577.00
2023-02-08T10:55:36.601Z,99585.41
2023-02-08T10:58:06.823Z,99575.00
2023-02-08T11:00:36.963Z,99583.94
2023-02-08T11:03:25.031Z,99572.78
2023-02-08T11:05:56.178Z,99575.13
2023-02-08T11:08:27.797Z,99572.78
2023-02-08T11:11:11.921Z,99569.16
2023-02-08T11:13:48.742Z,99573.88
2023-02-08T11:16:28.824Z,99578.13
2023-02-08T11:19:08.344Z,99561.50
2023-02-08T11:21:44.577Z,99571.34
2023-02-08T11:24:27.329Z,99576.72
2023-02-08T11:27:06.437Z,99577.84
2023-02-08T11:29:34.400Z,99573.97
2023-02-08T11:32:03.945Z,99569.41
2023-02-08T11:34:35.614Z,99578.22
2023-02-08T11:37:28.810Z,99577.72
2023-02-08T11:40:00.042Z,99577.94
2023-02-08T11:42:43.357Z,99570.91
2023-02-08T11:45:29.205Z,99575.16
2023-02-08T11:47:56.971Z,99567.59
2023-02-08T11:50:35.164Z,99580.09
2023-02-08T11:53:05.192Z,99566.22
2023-02-08T11:55:33.709Z,99570.16
2023-02-08T11:58:14.873Z,99571.09
2023-02-08T12:00:42.635Z,99574.47
2023-02-08T12:03:18.413Z,99562.63
2023-02-08T12:05:58.311Z,99565.28
2023-02-08T12:08:39.608Z,99574.25
2023-02-08T12:11:08.263Z,99566.09
2023-02-08T12:13:54.548Z,99574.44
2023-02-08T12:16:51.671Z,99574.31
2023-02-08T12:20:00.934Z,99574.19
2023-02-08T12:22:29.887Z,99577.47
2023-02-08T12:25:15.773Z,99577.81
2023-02-08T12:27:48.161Z,99580.91
2023-02-08T12:30:21.792Z,99575.56
2023-02-08T12:32:58.221Z,99562.63
2023-02-08T12:36:01.473Z,99571.16
2023-02-08T12:38:57.261Z,99570.72
2023-02-08T12:41:37.058Z,99572.47
2023-02-08T12:44:31.040Z,99571.63
2023-02-08T12:47:10.931Z,99566.38
2023-02-08T12:49:44.437Z,99572.06
2023-02-08T12:52:37.883Z,99576.31
2023-02-08T12:55:38.681Z,99570.59
2023-02-08T12:58:20.898Z,99559.81
2023-02-08T13:00:48.850Z,99559.69
2023-02-08T13:03:36.212Z,99562.91
2023-02-08T13:06:05.941Z,99568.06
2023-02-08T13:08:41.212Z,99559.13
2023-02-08T13:11:20.209Z,99573.34
2023-02-08T13:13:55.268Z,99568.22
2023-02-08T13:16:25.305Z,99578.44
2023-02-08T13:19:10.117Z,99578.44
2023-02-08T13:21:41.885Z,99582.66
2023-02-08T13:24:31.188Z,99581.84
2023-02-08T13:26:58.956Z,99581.88
2023-02-08T13:29:28.301Z,99585.63
2023-02-08T13:32:22.509Z,99589.59
2023-02-08T13:34:53.012Z,99589.25
2023-02-08T13:37:26.747Z,99588.19
2023-02-08T13:40:01.911Z,99589.38
2023-02-08T13:42:31.380Z,99598.88
2023-02-08T13:44:59.065Z,99604.00
2023-02-08T13:47:28.776Z,99599.88
2023-02-08T13:50:00.867Z,99597.22
2023-02-08T13:52:47.004Z,99601.16
2023-02-08T13:55:35.956Z,99590.13
2023-02-08T13:58:26.360Z,99601.25
2023-02-08T14:00:53.971Z,99586.25
2023-02-08T14:03:23.422Z,99597.19
2023-02-08T14:06:00.819Z,99609.03
2023-02-08T14:08:30.197Z,99601.78
2023-02-08T14:11:36.936Z,99605.94
2023-02-08T14:14:31.432Z,99605.13
2023-02-08T14:17:05.189Z,99593.75
2023-02-08T14:19:37.469Z,99603.34
2023-02-08T14:22:06.100Z,99597.59
2023-02-08T14:24:37.850Z,99607.16
2023-02-08T14:27:24.139Z,99613.75
2023-02-08T14:30:08.858Z,99614.91
2023-02-08T14:32:39.434Z,99614.81
2023-02-08T14:35:18.264Z,99605.56
2023-02-08T14:37:49.623Z,99619.31
2023-02-08T14:40:24.353Z,99611.22
2023-02-08T14:43:05.067Z,99610.22
2023-02-08T14:45:37.500Z,99610.50
2023-02-08T14:48:25.379Z,99603.41
2023-02-08T14:51:08.953Z,99616.03
2023-02-08T14:53:53.614Z,99601.44
2023-02-08T14:56:22.710Z,99609.56
2023-02-08T14:58:56.746Z,99605.28
2023-02-08T15:01:45.594Z,99618.28
2023-02-08T15:04:13.812Z,99620.81
2023-02-08T15:07:15.504Z,99622.25
2023-02-08T15:09:43.947Z,99617.22
2023-02-08T15:12:22.303Z,99628.81
2023-02-08T15:14:50.176Z,99626.16
2023-02-08T15:17:33.107Z,99628.06
2023-02-08T15:20:01.457Z,99623.38
2023-02-08T15:22:36.882Z,99632.31
2023-02-08T15:25:16.873Z,99633.09
2023-02-08T15:27:49.229Z,99628.84
2023-02-08T15:30:29.243Z,99633.50
2023-02-08T15:32:57.054Z,99635.41
2023-02-08T15:35:25.976Z,99632.38
2023-02-08T15:37:54.009Z,99642.88
2023-02-08T15:40:28.843Z,99645.22
2023-02-08T15:43:08.731Z,99634.78
2023-02-08T15:45:37.102Z,99639.97
2023-02-08T15:48:05.857Z,99654.25
2023-02-08T15:50:33.849Z,99653.09
2023-02-08T15:53:03.263Z,99654.97
2023-02-08T15:55:44.878Z,99666.00
2023-02-08T15:58:33.272Z,99657.34
2023-02-08T16:01:01.508Z,99662.94
2023-02-08T16:03:29.708Z,99673.25
2023-02-08T16:05:59.365Z,99671.03
2023-02-08T16:08:30.979Z,99662.25
2023-02-08T16:10:59.664Z,99675.84
2023-02-08T16:13:35.055Z,99681.22
2023-02-08T16:16:22.928Z,99678.13
2023-02-08T16:18:58.497Z,99680.06
2023-02-08T16:21:30.226Z,99668.19
2023-02-08T16:24:19.174Z,99673.56
2023-02-08T16:26:52.636Z,99674.84
2023-02-08T16:29:33.829Z,99668.59
2023-02-08T16:32:18.221Z,99672.97
2023-02-08T16:34:46.184Z,99681.50
2023-02-08T16:37:28.354Z,99684.47
2023-02-08T16:39:55.977Z,99692.41
2023-02-08T16:42:35.880Z,99680.81
2023-02-08T16:45:14.258Z,99681.34
2023-02-08T16:47:56.896Z,99685.38
2023-02-08T16:50:27.043Z,99691.31
2023-02-08T16:53:02.764Z,99693.66
2023-02-08T16:55:31.766Z,99689.44
2023-02-08T16:57:59.642Z,99694.75
2023-02-08T17:00:27.201Z,99701.94
2023-02-08T17:02:55.516Z,99690.88
2023-02-08T17:05:25.215Z,99695.88
2023-02-08T17:07:53.025Z,99704.09
2023-02-08T17:10:29.494Z,99696.94
2023-02-08T17:13:13.471Z,99700.63
2023-02-08T17:15:46.866Z,99699.50
2023-02-08T17:18:14.770Z,99708.13
2023-02-08T17:20:42.714Z,99712.69
2023-02-08T17:23:10.768Z,99716.88
2023-02-08T17:25:38.470Z,99713.66
2023-02-08T17:28:17.546Z,99727.53
2023-02-08T17:30:45.594Z,99721.59
2023-02-08T17:33:22.860Z,99709.75
2023-02-08T17:35:51.263Z,99718.72
2023-02-08T17:38:19.587Z,99720.66
2023-02-08T17:40:47.333Z,99721.47
2023-02-08T17:43:15.274Z,99731.69
2023-02-08T17:45:43.758Z,99726.88
2023-02-08T17:48:13.669Z,99722.59
2023-02-08T17:50:43.393Z,99728.84
2023-02-08T17:53:11.387Z,99729.31
2023-02-08T17:55:42.046Z,99736.19
2023-02-08T17:58:09.979Z,99734.84
2023-02-08T18:00:37.670Z,99733.19
2023-02-08T18:03:05.556Z,99734.97
2023-02-08T18:05:33.288Z,99735.06
2023-02-08T18:08:01.007Z,99731.94
2023-02-08T18:10:28.708Z,99721.72
2023-02-08T18:12:56.561Z,99723.66
2023-02-08T18:15:24.317Z,99716.72
2023-02-08T18:17:52.054Z,99723.91
2023-02-08T18:20:19.782Z,99726.44
2023-02-08T18:22:47.541Z,99730.53
2023-02-08T18:25:16.201Z,99736.75
2023-02-08T18:27:43.998Z,99723.19
2023-02-08T18:30:12.208Z,99729.94
2023-02-08T18:32:40.318Z,99729.59
2023-02-08T18:35:08.825Z,99727.13
2023-02-08T18:37:36.920Z,99728.41
2023-02-08T18:40:05.848Z,99725.34
2023-02-08T18:42:35.872Z,99722.47
2023-02-08T18:45:05.169Z,99721.69
2023-02-08T18:47:35.241Z,99728.09
2023-02-08T18:50:03.109Z,99734.50
2023-02-08T18:52:31.730Z,99731.84
2023-02-08T18:54:59.678Z,99733.78
2023-02-08T18:57:27.426Z,99727.94
2023-02-08T18:59:55.933Z,99741.56
2023-02-08T19:02:26.311Z,99735.75
2023-02-08T19:04:54.234Z,99746.47
2023-02-08T19:07:21.934Z,99745.59
2023-02-08T19:09:49.636Z,99745.81
2023-02-08T19:12:18.977Z,99749.72
2023-02-08T19:14:49.303Z,99748.72
2023-02-08T19:17:17.073Z,99753.63
2023-02-08T19:19:44.845Z,99758.38
2023-02-08T19:22:12.528Z,99747.75
2023-02-08T19:24:40.310Z,99756.03
2023-02-08T19:27:08.187Z,99767.44
2023-02-08T19:29:36.675Z,99758.34
2023-02-08T19:32:05.005Z,99751.47
2023-02-08T19:34:32.847Z,99762.66
2023-02-08T19:37:00.837Z,99756.88
2023-02-08T19:39:28.596Z,99773.34
2023-02-08T19:41:58.727Z,99771.41
2023-02-08T19:44:29.872Z,99768.13
2023-02-08T19:46:58.268Z,99769.50
2023-02-08T19:49:27.313Z,99774.72
2023-02-08T19:51:55.175Z,99763.91
2023-02-08T19:54:23.010Z,99778.22
2023-02-08T19:56:52.211Z,99761.97
2023-02-08T19:59:24.563Z,99766.34
2023-02-08T20:01:53.313Z,99770.25
2023-02-08T20:04:21.535Z,99782.59
2023-02-08T20:06:53.506Z,99777.25
2023-02-08T20:09:21.472Z,99769.16
2023-02-08T20:11:56.821Z,99777.59
2023-02-08T20:14:31.121Z,99770.97
2023-02-08T20:16:59.470Z,99780.06
2023-02-08T20:19:27.328Z,99778.13
2023-02-08T20:21:55.036Z,99772.25
2023-02-08T20:24:22.773Z,99770.66
2023-02-08T20:26:50.486Z,99770.41
2023-02-08T20:29:18.267Z,99768.50
2023-02-08T20:31:47.963Z,99774.16
2023-02-08T20:34:16.323Z,99768.41
2023-02-08T20:36:49.592Z,99769.09
2023-02-08T20:39:22.470Z,99782.81
2023-02-08T20:41:50.257Z,99786.81
2023-02-08T20:44:18.360Z,99780.94
2023-02-08T20:46:46.648Z,99786.16
2023-02-08T20:49:15.354Z,99785.16
2023-02-08T20:51:43.458Z,99784.53
2023-02-08T20:54:11.498Z,99781.22
2023-02-08T20:56:39.223Z,99781.44
2023-02-08T20:59:08.545Z,99790.97
2023-02-08T21:01:36.510Z,99777.41
2023-02-08T21:04:04.504Z,99780.53
2023-02-08T21:06:36.544Z,99774.13
2023-02-08T21:09:06.438Z,99772.06
2023-02-08T21:11:34.637Z,99764.84
2023-02-08T21:14:02.438Z,99770.81
2023-02-08T21:16:30.304Z,99770.19
2023-02-08T21:18:58.254Z,99764.03
2023-02-08T21:21:26.145Z,99755.22
2023-02-08T21:23:53.938Z,99761.16
2023-02-08T21:26:21.684Z,99766.25
2023-02-08T21:28:52.783Z,99759.38
2023-02-08T21:31:22.180Z,99757.63
2023-02-08T21:33:50.189Z,99765.56
2023-02-08T21:36:20.122Z,99760.47
2023-02-08T21:38:47.890Z,99757.91
2023-02-08T21:41:20.419Z,99774.56
2023-02-08T21:43:48.535Z,99772.41
2023-02-08T21:46:16.491Z,99773.25
2023-02-08T21:49:03.157Z,99777.94
2023-02-08T21:51:49.501Z,99775.63
2023-02-08T21:54:38.176Z,99766.25
2023-02-08T21:57:07.356Z,99766.81
2023-02-08T21:59:37.858Z,99768.16
2023-02-08T22:02:11.013Z,99772.81
2023-02-08T22:04:57.803Z,99772.03
2023-02-08T22:07:25.666Z,99775.13
2023-02-08T22:09:53.449Z,99774.81
2023-02-08T22:12:21.951Z,99776.59
2023-02-08T22:14:49.864Z,99776.47
2023-02-08T22:17:17.711Z,99779.84
2023-02-08T22:19:45.556Z,99791.50
2023-02-08T22:22:13.320Z,99785.72
2023-02-08T22:24:41.191Z,99803.38
2023-02-08T22:27:08.899Z,99791.13
2023-02-08T22:29:36.681Z,99798.63
2023-02-08T22:32:05.580Z,99780.03
2023-02-08T22:34:33.487Z,99783.28
2023-02-08T22:37:04.151Z,99781.91
2023-02-08T22:39:33.001Z,99781.88
2023-02-08T22:42:00.756Z,99780.94
2023-02-08T22:44:28.572Z,99775.22
2023-02-08T22:46:57.505Z,99774.72
2023-02-08T22:49:25.317Z,99779.19
2023-02-08T22:51:53.038Z,99790.63
2023-02-08T22:54:20.740Z,99782.34
2023-02-08T22:56:48.409Z,99783.47
2023-02-08T22:59:16.184Z,99789.19
2023-02-08T23:01:44.035Z,99793.31
2023-02-08T23:04:11.796Z,99778.91
2023-02-08T23:06:39.504Z,99786.06
2023-02-08T23:09:07.468Z,99789.72
2023-02-08T23:11:35.197Z,99784.94
2023-02-08T23:14:02.961Z,99786.00
2023-02-08T23:16:30.737Z,99786.31
2023-02-08T23:18:58.560Z,99779.84
2023-02-08T23:21:28.742Z,99785.94
2023-02-08T23:23:56.539Z,99780.47
2023-02-08T23:26:24.312Z,99782.25
2023-02-08T23:28:52.897Z,99783.34
2023-02-08T23:31:20.936Z,99788.00
2023-02-08T23:33:48.843Z,99784.09
2023-02-08T23:36:18.624Z,99787.34
2023-02-08T23:38:46.522Z,99785.84
2023-02-08T23:41:19.607Z,99785.44
2023-02-08T23:43:47.584Z,99778.78
2023-02-08T23:46:17.639Z,99779.78
2023-02-08T23:48:47.698Z,99769.75
2023-02-08T23:51:16.759Z,99772.59
2023-02-08T23:53:44.619Z,99767.22
2023-02-08T23:56:23.460Z,99777.59
2023-02-08T23:58:53.263Z,99777.50
